sensor_id;sensor_type;location;lat;lon;timestamp;temperature;humidity
18717;DHT22;9487;50.892;6.906;2023-03-26T00:01:08;10.60;99.90
18717;DHT22;9487;50.892;6.906;2023-03-26T00:03:38;10.60;99.90
18717;DHT22;9487;50.892;6.906;2023-03-26T00:06:10;10.60;99.90
18717;DHT22;9487;50.892;6.906;2023-03-26T00:08:39;10.60;99.90
18717;DHT22;9487;50.892;6.906;2023-03-26T00:11:08;10.60;99.90
18717;DHT22;9487;50.892;6.906;2023-03-26T00:13:35;10.60;99.90
18717;DHT22;9487;50.892;6.906;2023-03-26T00:16:02;10.60;99.90
18717;DHT22;9487;50.892;6.906;2023-03-26T00:18:30;10.60;99.90
18717;DHT22;9487;50.892;6.906;2023-03-26T00:21:01;10.50;99.90
18717;DHT22;9487;50.892;6.906;2023-03-26T00:23:30;10.50;99.90
18717;DHT22;9487;50.892;6.906;2023-03-26T00:25:57;10.50;99.90
18717;DHT22;9487;50.892;6.906;2023-03-26T00:28:25;10.50;99.90
18717;DHT22;9487;50.892;6.906;2023-03-26T00:30:57;10.50;99.90
18717;DHT22;9487;50.892;6.906;2023-03-26T00:33:24;10.50;99.90
18717;DHT22;9487;50.892;6.906;2023-03-26T00:35:51;10.50;99.90
18717;DHT22;9487;50.892;6.906;2023-03-26T00:38:18;10.50;99.90
18717;DHT22;9487;50.892;6.906;2023-03-26T00:40:48;10.40;99.90
18717;DHT22;9487;50.892;6.906;2023-03-26T00:43:15;10.40;99.90
18717;DHT22;9487;50.892;6.906;2023-03-26T00:45:45;10.40;99.90
18717;DHT22;9487;50.892;6.906;2023-03-26T00:48:12;10.30;99.90
18717;DHT22;9487;50.892;6.906;2023-03-26T00:50:39;10.30;99.90
18717;DHT22;9487;50.892;6.906;2023-03-26T00:53:07;10.30;99.90
18717;DHT22;9487;50.892;6.906;2023-03-26T00:55:36;10.20;99.90
18717;DHT22;9487;50.892;6.906;2023-03-26T00:58:05;10.20;99.90
18717;DHT22;9487;50.892;6.906;2023-03-26T01:00:35;10.30;99.90
18717;DHT22;9487;50.892;6.906;2023-03-26T01:03:05;10.20;99.90
18717;DHT22;9487;50.892;6.906;2023-03-26T01:05:41;10.20;99.90
18717;DHT22;9487;50.892;6.906;2023-03-26T01:08:18;10.20;99.90
18717;DHT22;9487;50.892;6.906;2023-03-26T01:10:45;10.10;99.90
18717;DHT22;9487;50.892;6.906;2023-03-26T01:13:17;10.10;99.90
18717;DHT22;9487;50.892;6.906;2023-03-26T01:15:45;10.10;99.90
18717;DHT22;9487;50.892;6.906;2023-03-26T01:18:16;10.10;99.90
18717;DHT22;9487;50.892;6.906;2023-03-26T01:20:45;10.10;99.90
18717;DHT22;9487;50.892;6.906;2023-03-26T01:23:16;10.00;99.90
18717;DHT22;9487;50.892;6.906;2023-03-26T01:25:53;10.00;99.90
18717;DHT22;9487;50.892;6.906;2023-03-26T01:28:23;9.90;99.90
18717;DHT22;9487;50.892;6.906;2023-03-26T01:30:57;10.00;99.90
18717;DHT22;9487;50.892;6.906;2023-03-26T01:33:35;9.90;99.90
18717;DHT22;9487;50.892;6.906;2023-03-26T01:36:07;9.90;99.90
18717;DHT22;9487;50.892;6.906;2023-03-26T01:38:41;9.80;99.90
18717;DHT22;9487;50.892;6.906;2023-03-26T01:41:16;9.70;99.90
18717;DHT22;9487;50.892;6.906;2023-03-26T01:43:50;9.70;99.90
18717;DHT22;9487;50.892;6.906;2023-03-26T01:46:21;9.70;99.90
18717;DHT22;9487;50.892;6.906;2023-03-26T01:48:50;9.70;99.90
18717;DHT22;9487;50.892;6.906;2023-03-26T01:51:26;9.70;99.90
18717;DHT22;9487;50.892;6.906;2023-03-26T01:53:54;9.70;99.90
18717;DHT22;9487;50.892;6.906;2023-03-26T01:56:25;9.70;99.90
18717;DHT22;9487;50.892;6.906;2023-03-26T01:59:06;9.70;99.90
18717;DHT22;9487;50.892;6.906;2023-03-26T02:01:39;9.80;99.90
18717;DHT22;9487;50.892;6.906;2023-03-26T02:04:17;9.80;99.90
18717;DHT22;9487;50.892;6.906;2023-03-26T02:06:51;9.80;99.90
18717;DHT22;9487;50.892;6.906;2023-03-26T02:09:21;9.90;99.90
18717;DHT22;9487;50.892;6.906;2023-03-26T02:11:52;9.90;99.90
18717;DHT22;9487;50.892;6.906;2023-03-26T02:14:20;9.90;99.90
18717;DHT22;9487;50.892;6.906;2023-03-26T02:16:47;9.90;99.90
18717;DHT22;9487;50.892;6.906;2023-03-26T02:19:16;9.90;99.90
18717;DHT22;9487;50.892;6.906;2023-03-26T02:21:46;10.00;99.90
18717;DHT22;9487;50.892;6.906;2023-03-26T02:24:16;10.00;99.90
18717;DHT22;9487;50.892;6.906;2023-03-26T02:26:43;10.00;99.90
18717;DHT22;9487;50.892;6.906;2023-03-26T02:29:12;10.00;99.90
18717;DHT22;9487;50.892;6.906;2023-03-26T02:31:39;10.00;99.90
18717;DHT22;9487;50.892;6.906;2023-03-26T02:34:07;10.00;99.90
18717;DHT22;9487;50.892;6.906;2023-03-26T02:36:34;10.10;99.90
18717;DHT22;9487;50.892;6.906;2023-03-26T02:39:01;10.00;99.90
18717;DHT22;9487;50.892;6.906;2023-03-26T02:41:28;10.00;99.90
18717;DHT22;9487;50.892;6.906;2023-03-26T02:43:55;10.00;99.90
18717;DHT22;9487;50.892;6.906;2023-03-26T02:46:23;9.90;99.90
18717;DHT22;9487;50.892;6.906;2023-03-26T02:48:50;9.90;99.90
18717;DHT22;9487;50.892;6.906;2023-03-26T02:51:17;9.90;99.90
18717;DHT22;9487;50.892;6.906;2023-03-26T02:53:44;9.90;99.90
18717;DHT22;9487;50.892;6.906;2023-03-26T02:56:11;9.90;99.90
18717;DHT22;9487;50.892;6.906;2023-03-26T02:58:38;9.90;99.90
18717;DHT22;9487;50.892;6.906;2023-03-26T03:01:05;9.80;99.90
18717;DHT22;9487;50.892;6.906;2023-03-26T03:03:33;9.80;99.90
18717;DHT22;9487;50.892;6.906;2023-03-26T03:06:01;9.70;99.90
18717;DHT22;9487;50.892;6.906;2023-03-26T03:08:27;9.80;99.90
18717;DHT22;9487;50.892;6.906;2023-03-26T03:10:56;9.70;99.90
18717;DHT22;9487;50.892;6.906;2023-03-26T03:13:23;9.70;99.90
18717;DHT22;9487;50.892;6.906;2023-03-26T03:15:50;9.60;99.90
18717;DHT22;9487;50.892;6.906;2023-03-26T03:18:17;9.60;99.90
18717;DHT22;9487;50.892;6.906;2023-03-26T03:20:45;9.60;99.90
18717;DHT22;9487;50.892;6.906;2023-03-26T03:23:12;9.50;99.90
18717;DHT22;9487;50.892;6.906;2023-03-26T03:25:39;9.50;99.90
18717;DHT22;9487;50.892;6.906;2023-03-26T03:28:07;9.50;99.90
18717;DHT22;9487;50.892;6.906;2023-03-26T03:30:34;9.60;99.90
18717;DHT22;9487;50.892;6.906;2023-03-26T03:33:01;9.50;99.90
18717;DHT22;9487;50.892;6.906;2023-03-26T03:35:28;9.60;99.90
18717;DHT22;9487;50.892;6.906;2023-03-26T03:37:57;9.60;99.90
18717;DHT22;9487;50.892;6.906;2023-03-26T03:40:24;9.50;99.90
18717;DHT22;9487;50.892;6.906;2023-03-26T03:42:51;9.50;99.90
18717;DHT22;9487;50.892;6.906;2023-03-26T03:45:18;9.50;99.90
18717;DHT22;9487;50.892;6.906;2023-03-26T03:47:45;9.50;99.90
18717;DHT22;9487;50.892;6.906;2023-03-26T03:50:12;9.50;99.90
18717;DHT22;9487;50.892;6.906;2023-03-26T03:52:39;9.50;99.90
18717;DHT22;9487;50.892;6.906;2023-03-26T03:55:08;9.60;99.90
18717;DHT22;9487;50.892;6.906;2023-03-26T03:57:35;9.60;99.90
18717;DHT22;9487;50.892;6.906;2023-03-26T04:00:03;9.70;99.90
18717;DHT22;9487;50.892;6.906;2023-03-26T04:02:31;9.70;99.90
18717;DHT22;9487;50.892;6.906;2023-03-26T04:05:00;9.80;99.90
18717;DHT22;9487;50.892;6.906;2023-03-26T04:07:28;9.80;99.90
18717;DHT22;9487;50.892;6.906;2023-03-26T04:09:56;9.90;99.90
18717;DHT22;9487;50.892;6.906;2023-03-26T04:12:26;9.90;99.90
18717;DHT22;9487;50.892;6.906;2023-03-26T04:14:53;9.90;99.90
18717;DHT22;9487;50.892;6.906;2023-03-26T04:17:20;9.80;99.90
18717;DHT22;9487;50.892;6.906;2023-03-26T04:19:47;9.80;99.90
18717;DHT22;9487;50.892;6.906;2023-03-26T04:22:14;9.70;99.90
18717;DHT22;9487;50.892;6.906;2023-03-26T04:24:43;9.70;99.90
18717;DHT22;9487;50.892;6.906;2023-03-26T04:27:12;9.70;99.90
18717;DHT22;9487;50.892;6.906;2023-03-26T04:29:44;9.60;99.90
18717;DHT22;9487;50.892;6.906;2023-03-26T04:32:17;9.50;99.90
18717;DHT22;9487;50.892;6.906;2023-03-26T04:34:45;9.40;99.90
18717;DHT22;9487;50.892;6.906;2023-03-26T04:37:19;9.40;99.90
18717;DHT22;9487;50.892;6.906;2023-03-26T04:39:49;9.40;99.90
18717;DHT22;9487;50.892;6.906;2023-03-26T04:42:15;9.40;99.90
18717;DHT22;9487;50.892;6.906;2023-03-26T04:44:45;9.40;99.90
18717;DHT22;9487;50.892;6.906;2023-03-26T04:47:15;9.30;99.90
18717;DHT22;9487;50.892;6.906;2023-03-26T04:49:42;9.30;99.90
18717;DHT22;9487;50.892;6.906;2023-03-26T04:52:09;9.20;99.90
18717;DHT22;9487;50.892;6.906;2023-03-26T04:54:37;9.20;99.90
18717;DHT22;9487;50.892;6.906;2023-03-26T04:57:06;9.20;99.90
18717;DHT22;9487;50.892;6.906;2023-03-26T04:59:35;9.20;99.90
18717;DHT22;9487;50.892;6.906;2023-03-26T05:02:04;9.20;99.90
18717;DHT22;9487;50.892;6.906;2023-03-26T05:04:34;9.20;99.90
18717;DHT22;9487;50.892;6.906;2023-03-26T05:07:03;9.10;99.90
18717;DHT22;9487;50.892;6.906;2023-03-26T05:09:30;9.10;99.90
18717;DHT22;9487;50.892;6.906;2023-03-26T05:11:57;9.10;99.90
18717;DHT22;9487;50.892;6.906;2023-03-26T05:14:24;9.10;99.90
18717;DHT22;9487;50.892;6.906;2023-03-26T05:16:51;9.10;99.90
18717;DHT22;9487;50.892;6.906;2023-03-26T05:19:20;9.10;99.90
18717;DHT22;9487;50.892;6.906;2023-03-26T05:21:48;9.20;99.90
18717;DHT22;9487;50.892;6.906;2023-03-26T05:24:14;9.20;99.90
18717;DHT22;9487;50.892;6.906;2023-03-26T05:26:42;9.30;99.90
18717;DHT22;9487;50.892;6.906;2023-03-26T05:29:09;9.20;99.90
18717;DHT22;9487;50.892;6.906;2023-03-26T05:31:35;9.30;99.90
18717;DHT22;9487;50.892;6.906;2023-03-26T05:34:02;9.30;99.90
18717;DHT22;9487;50.892;6.906;2023-03-26T05:36:30;9.20;99.90
18717;DHT22;9487;50.892;6.906;2023-03-26T05:38:57;9.30;99.90
18717;DHT22;9487;50.892;6.906;2023-03-26T05:41:24;9.20;99.90
18717;DHT22;9487;50.892;6.906;2023-03-26T05:43:51;9.20;99.90
18717;DHT22;9487;50.892;6.906;2023-03-26T05:46:18;9.20;99.90
18717;DHT22;9487;50.892;6.906;2023-03-26T05:48:47;9.20;99.90
18717;DHT22;9487;50.892;6.906;2023-03-26T05:51:14;9.10;99.90
18717;DHT22;9487;50.892;6.906;2023-03-26T05:53:42;9.10;99.90
18717;DHT22;9487;50.892;6.906;2023-03-26T05:56:09;9.10;99.90
18717;DHT22;9487;50.892;6.906;2023-03-26T05:58:36;9.10;99.90
18717;DHT22;9487;50.892;6.906;2023-03-26T06:01:05;9.10;99.90
18717;DHT22;9487;50.892;6.906;2023-03-26T06:03:34;9.10;99.90
18717;DHT22;9487;50.892;6.906;2023-03-26T06:06:02;9.30;99.90
18717;DHT22;9487;50.892;6.906;2023-03-26T06:08:31;9.30;99.90
18717;DHT22;9487;50.892;6.906;2023-03-26T06:11:01;9.30;99.90
18717;DHT22;9487;50.892;6.906;2023-03-26T06:13:28;9.30;99.90
18717;DHT22;9487;50.892;6.906;2023-03-26T06:15:55;9.10;99.90
18717;DHT22;9487;50.892;6.906;2023-03-26T06:18:22;9.00;99.90
18717;DHT22;9487;50.892;6.906;2023-03-26T06:20:49;9.00;99.90
18717;DHT22;9487;50.892;6.906;2023-03-26T06:23:16;9.00;99.90
18717;DHT22;9487;50.892;6.906;2023-03-26T06:25:43;9.00;99.90
18717;DHT22;9487;50.892;6.906;2023-03-26T06:28:12;8.90;99.90
18717;DHT22;9487;50.892;6.906;2023-03-26T06:30:39;9.00;99.90
18717;DHT22;9487;50.892;6.906;2023-03-26T06:33:06;8.90;99.90
18717;DHT22;9487;50.892;6.906;2023-03-26T06:35:33;8.90;99.90
18717;DHT22;9487;50.892;6.906;2023-03-26T06:38:00;8.90;99.90
18717;DHT22;9487;50.892;6.906;2023-03-26T06:40:27;8.90;99.90
18717;DHT22;9487;50.892;6.906;2023-03-26T06:42:54;8.90;99.90
18717;DHT22;9487;50.892;6.906;2023-03-26T06:45:23;9.00;99.90
18717;DHT22;9487;50.892;6.906;2023-03-26T06:47:50;9.10;99.90
18717;DHT22;9487;50.892;6.906;2023-03-26T06:50:17;9.10;99.90
18717;DHT22;9487;50.892;6.906;2023-03-26T06:52:44;9.30;99.90
18717;DHT22;9487;50.892;6.906;2023-03-26T06:55:10;9.20;99.90
18717;DHT22;9487;50.892;6.906;2023-03-26T06:57:37;9.20;99.90
18717;DHT22;9487;50.892;6.906;2023-03-26T07:00:05;9.20;99.90
18717;DHT22;9487;50.892;6.906;2023-03-26T07:02:36;9.20;99.90
18717;DHT22;9487;50.892;6.906;2023-03-26T07:05:03;9.10;99.90
18717;DHT22;9487;50.892;6.906;2023-03-26T07:07:30;8.90;99.90
18717;DHT22;9487;50.892;6.906;2023-03-26T07:09:56;8.80;99.90
18717;DHT22;9487;50.892;6.906;2023-03-26T07:12:23;8.80;99.90
18717;DHT22;9487;50.892;6.906;2023-03-26T07:14:50;8.80;99.90
18717;DHT22;9487;50.892;6.906;2023-03-26T07:17:17;8.80;99.90
18717;DHT22;9487;50.892;6.906;2023-03-26T07:19:45;8.70;99.90
18717;DHT22;9487;50.892;6.906;2023-03-26T07:22:14;8.80;99.90
18717;DHT22;9487;50.892;6.906;2023-03-26T07:24:44;8.80;99.90
18717;DHT22;9487;50.892;6.906;2023-03-26T07:27:26;8.80;99.90
18717;DHT22;9487;50.892;6.906;2023-03-26T07:30:03;8.70;99.90
18717;DHT22;9487;50.892;6.906;2023-03-26T07:32:36;8.70;99.90
18717;DHT22;9487;50.892;6.906;2023-03-26T07:35:12;8.60;99.90
18717;DHT22;9487;50.892;6.906;2023-03-26T07:37:48;8.60;99.90
18717;DHT22;9487;50.892;6.906;2023-03-26T07:40:26;8.70;99.90
18717;DHT22;9487;50.892;6.906;2023-03-26T07:43:03;8.70;99.90
18717;DHT22;9487;50.892;6.906;2023-03-26T07:45:36;8.60;99.90
18717;DHT22;9487;50.892;6.906;2023-03-26T07:48:09;8.70;99.90
18717;DHT22;9487;50.892;6.906;2023-03-26T07:50:40;8.60;99.90
18717;DHT22;9487;50.892;6.906;2023-03-26T07:53:07;8.50;99.90
18717;DHT22;9487;50.892;6.906;2023-03-26T07:55:36;8.60;99.90
18717;DHT22;9487;50.892;6.906;2023-03-26T07:58:14;8.60;99.90
18717;DHT22;9487;50.892;6.906;2023-03-26T08:00:50;8.60;99.90
18717;DHT22;9487;50.892;6.906;2023-03-26T08:03:26;8.60;99.90
18717;DHT22;9487;50.892;6.906;2023-03-26T08:06:04;8.60;99.90
18717;DHT22;9487;50.892;6.906;2023-03-26T08:08:46;8.60;99.90
18717;DHT22;9487;50.892;6.906;2023-03-26T08:11:23;8.70;99.90
18717;DHT22;9487;50.892;6.906;2023-03-26T08:13:58;8.90;99.90
18717;DHT22;9487;50.892;6.906;2023-03-26T08:16:31;8.80;99.90
18717;DHT22;9487;50.892;6.906;2023-03-26T08:19:06;8.80;99.90
18717;DHT22;9487;50.892;6.906;2023-03-26T08:21:40;8.80;99.90
18717;DHT22;9487;50.892;6.906;2023-03-26T08:24:13;8.80;99.90
18717;DHT22;9487;50.892;6.906;2023-03-26T08:26:50;8.90;99.90
18717;DHT22;9487;50.892;6.906;2023-03-26T08:29:24;8.80;99.90
18717;DHT22;9487;50.892;6.906;2023-03-26T08:31:55;8.80;99.90
18717;DHT22;9487;50.892;6.906;2023-03-26T08:34:22;8.70;99.90
18717;DHT22;9487;50.892;6.906;2023-03-26T08:36:51;8.70;99.90
18717;DHT22;9487;50.892;6.906;2023-03-26T08:39:18;8.60;99.90
18717;DHT22;9487;50.892;6.906;2023-03-26T08:45:27;8.70;99.90
18717;DHT22;9487;50.892;6.906;2023-03-26T08:51:08;8.60;99.90
18717;DHT22;9487;50.892;6.906;2023-03-26T08:54:09;8.60;99.90
18717;DHT22;9487;50.892;6.906;2023-03-26T08:56:48;8.70;99.90
18717;DHT22;9487;50.892;6.906;2023-03-26T08:59:57;8.80;99.90
18717;DHT22;9487;50.892;6.906;2023-03-26T09:05:37;8.70;99.90
18717;DHT22;9487;50.892;6.906;2023-03-26T09:08:45;8.80;99.90
18717;DHT22;9487;50.892;6.906;2023-03-26T09:11:42;8.70;99.90
18717;DHT22;9487;50.892;6.906;2023-03-26T09:14:36;8.70;99.90
18717;DHT22;9487;50.892;6.906;2023-03-26T09:17:27;8.60;99.90
18717;DHT22;9487;50.892;6.906;2023-03-26T09:26:03;8.60;99.90
18717;DHT22;9487;50.892;6.906;2023-03-26T09:35:12;8.80;99.90
18717;DHT22;9487;50.892;6.906;2023-03-26T09:37:58;8.80;99.90
18717;DHT22;9487;50.892;6.906;2023-03-26T09:40:34;9.00;99.90
18717;DHT22;9487;50.892;6.906;2023-03-26T09:43:28;9.00;99.90
18717;DHT22;9487;50.892;6.906;2023-03-26T09:46:06;9.00;99.90
18717;DHT22;9487;50.892;6.906;2023-03-26T09:49:07;8.90;99.90
18717;DHT22;9487;50.892;6.906;2023-03-26T09:57:45;8.80;99.90
18717;DHT22;9487;50.892;6.906;2023-03-26T10:00:27;8.80;99.90
18717;DHT22;9487;50.892;6.906;2023-03-26T10:03:11;8.80;99.90
18717;DHT22;9487;50.892;6.906;2023-03-26T10:05:58;8.90;99.90
18717;DHT22;9487;50.892;6.906;2023-03-26T10:08:50;8.90;99.90
18717;DHT22;9487;50.892;6.906;2023-03-26T10:11:25;9.00;99.90
18717;DHT22;9487;50.892;6.906;2023-03-26T10:14:03;9.00;99.90
18717;DHT22;9487;50.892;6.906;2023-03-26T10:16:44;9.00;99.90
18717;DHT22;9487;50.892;6.906;2023-03-26T10:19:37;9.10;99.90
18717;DHT22;9487;50.892;6.906;2023-03-26T10:22:19;9.10;99.90
18717;DHT22;9487;50.892;6.906;2023-03-26T10:25:04;9.10;99.90
18717;DHT22;9487;50.892;6.906;2023-03-26T10:27:46;9.20;99.90
18717;DHT22;9487;50.892;6.906;2023-03-26T10:30:27;9.30;99.90
18717;DHT22;9487;50.892;6.906;2023-03-26T10:33:08;9.40;99.90
18717;DHT22;9487;50.892;6.906;2023-03-26T10:35:46;9.40;99.90
18717;DHT22;9487;50.892;6.906;2023-03-26T10:38:21;9.50;99.90
18717;DHT22;9487;50.892;6.906;2023-03-26T10:41:00;9.50;99.90
18717;DHT22;9487;50.892;6.906;2023-03-26T10:43:49;9.50;99.90
18717;DHT22;9487;50.892;6.906;2023-03-26T10:46:59;9.60;99.90
18717;DHT22;9487;50.892;6.906;2023-03-26T10:52:36;9.50;99.90
18717;DHT22;9487;50.892;6.906;2023-03-26T10:55:10;9.40;99.90
18717;DHT22;9487;50.892;6.906;2023-03-26T10:57:43;9.30;99.90
18717;DHT22;9487;50.892;6.906;2023-03-26T11:00:16;9.30;99.90
18717;DHT22;9487;50.892;6.906;2023-03-26T11:03:00;9.10;99.90
18717;DHT22;9487;50.892;6.906;2023-03-26T11:05:48;9.20;99.90
18717;DHT22;9487;50.892;6.906;2023-03-26T11:08:21;9.40;99.90
18717;DHT22;9487;50.892;6.906;2023-03-26T11:10:56;9.40;99.90
18717;DHT22;9487;50.892;6.906;2023-03-26T11:13:34;9.60;99.90
18717;DHT22;9487;50.892;6.906;2023-03-26T11:16:03;9.80;99.90
18717;DHT22;9487;50.892;6.906;2023-03-26T11:18:37;10.00;99.90
18717;DHT22;9487;50.892;6.906;2023-03-26T11:21:12;10.10;99.90
18717;DHT22;9487;50.892;6.906;2023-03-26T11:23:54;10.10;99.90
18717;DHT22;9487;50.892;6.906;2023-03-26T11:26:28;10.10;99.90
18717;DHT22;9487;50.892;6.906;2023-03-26T11:29:15;10.10;99.90
18717;DHT22;9487;50.892;6.906;2023-03-26T11:31:53;10.10;99.90
18717;DHT22;9487;50.892;6.906;2023-03-26T11:34:27;10.20;99.90
18717;DHT22;9487;50.892;6.906;2023-03-26T11:36:58;10.30;99.90
18717;DHT22;9487;50.892;6.906;2023-03-26T11:39:28;10.30;99.90
18717;DHT22;9487;50.892;6.906;2023-03-26T11:42:04;10.30;99.90
18717;DHT22;9487;50.892;6.906;2023-03-26T11:44:35;10.40;99.90
18717;DHT22;9487;50.892;6.906;2023-03-26T11:47:06;10.40;99.90
18717;DHT22;9487;50.892;6.906;2023-03-26T11:49:37;10.40;99.90
18717;DHT22;9487;50.892;6.906;2023-03-26T11:52:09;10.40;99.90
18717;DHT22;9487;50.892;6.906;2023-03-26T11:54:36;10.50;99.90
18717;DHT22;9487;50.892;6.906;2023-03-26T11:57:06;10.60;99.90
18717;DHT22;9487;50.892;6.906;2023-03-26T11:59:37;10.60;99.90
18717;DHT22;9487;50.892;6.906;2023-03-26T12:02:18;10.80;99.90
18717;DHT22;9487;50.892;6.906;2023-03-26T12:04:50;10.50;99.90
18717;DHT22;9487;50.892;6.906;2023-03-26T12:07:22;10.50;99.90
18717;DHT22;9487;50.892;6.906;2023-03-26T12:09:57;10.60;99.90
18717;DHT22;9487;50.892;6.906;2023-03-26T12:12:25;10.60;99.90
18717;DHT22;9487;50.892;6.906;2023-03-26T12:14:53;10.50;99.90
18717;DHT22;9487;50.892;6.906;2023-03-26T12:17:26;10.50;99.90
18717;DHT22;9487;50.892;6.906;2023-03-26T12:19:55;10.70;99.90
18717;DHT22;9487;50.892;6.906;2023-03-26T12:22:32;10.70;99.90
18717;DHT22;9487;50.892;6.906;2023-03-26T12:25:14;10.80;99.90
18717;DHT22;9487;50.892;6.906;2023-03-26T12:27:43;10.90;99.90
18717;DHT22;9487;50.892;6.906;2023-03-26T12:30:19;10.90;99.90
18717;DHT22;9487;50.892;6.906;2023-03-26T12:32:47;10.70;99.90
18717;DHT22;9487;50.892;6.906;2023-03-26T12:35:16;10.50;99.90
18717;DHT22;9487;50.892;6.906;2023-03-26T12:37:46;10.30;99.90
18717;DHT22;9487;50.892;6.906;2023-03-26T12:40:29;10.00;99.90
18717;DHT22;9487;50.892;6.906;2023-03-26T12:42:57;9.60;99.90
18717;DHT22;9487;50.892;6.906;2023-03-26T12:45:30;9.50;99.90
18717;DHT22;9487;50.892;6.906;2023-03-26T12:47:58;9.40;99.90
18717;DHT22;9487;50.892;6.906;2023-03-26T12:50:35;9.30;99.90
18717;DHT22;9487;50.892;6.906;2023-03-26T12:53:28;9.30;99.90
18717;DHT22;9487;50.892;6.906;2023-03-26T12:56:00;9.30;99.90
18717;DHT22;9487;50.892;6.906;2023-03-26T12:58:49;9.20;99.90
18717;DHT22;9487;50.892;6.906;2023-03-26T13:01:27;9.20;99.90
18717;DHT22;9487;50.892;6.906;2023-03-26T13:04:11;9.00;99.90
18717;DHT22;9487;50.892;6.906;2023-03-26T13:06:43;8.90;99.90
18717;DHT22;9487;50.892;6.906;2023-03-26T13:09:31;8.50;99.90
18717;DHT22;9487;50.892;6.906;2023-03-26T13:12:07;8.50;99.90
18717;DHT22;9487;50.892;6.906;2023-03-26T13:15:07;8.60;99.90
18717;DHT22;9487;50.892;6.906;2023-03-26T13:17:44;8.60;99.90
18717;DHT22;9487;50.892;6.906;2023-03-26T13:20:21;8.50;99.90
18717;DHT22;9487;50.892;6.906;2023-03-26T13:22:55;8.40;99.90
18717;DHT22;9487;50.892;6.906;2023-03-26T13:25:31;8.40;99.90
18717;DHT22;9487;50.892;6.906;2023-03-26T13:28:13;8.30;99.90
18717;DHT22;9487;50.892;6.906;2023-03-26T13:30:47;8.40;99.90
18717;DHT22;9487;50.892;6.906;2023-03-26T13:33:29;8.50;99.90
18717;DHT22;9487;50.892;6.906;2023-03-26T13:36:02;8.50;99.90
18717;DHT22;9487;50.892;6.906;2023-03-26T13:38:39;8.50;99.90
18717;DHT22;9487;50.892;6.906;2023-03-26T13:41:15;8.60;99.90
18717;DHT22;9487;50.892;6.906;2023-03-26T13:43:53;8.70;99.90
18717;DHT22;9487;50.892;6.906;2023-03-26T13:46:30;8.70;99.90
18717;DHT22;9487;50.892;6.906;2023-03-26T13:49:00;8.70;99.90
18717;DHT22;9487;50.892;6.906;2023-03-26T13:51:34;8.60;99.90
18717;DHT22;9487;50.892;6.906;2023-03-26T13:54:12;8.70;99.90
18717;DHT22;9487;50.892;6.906;2023-03-26T13:56:46;8.80;99.90
18717;DHT22;9487;50.892;6.906;2023-03-26T13:59:16;8.80;99.90
18717;DHT22;9487;50.892;6.906;2023-03-26T14:01:48;8.80;99.90
18717;DHT22;9487;50.892;6.906;2023-03-26T14:04:20;8.90;99.90
18717;DHT22;9487;50.892;6.906;2023-03-26T14:06:51;8.90;99.90
18717;DHT22;9487;50.892;6.906;2023-03-26T14:09:25;8.90;99.90
18717;DHT22;9487;50.892;6.906;2023-03-26T14:12:23;8.90;99.90
18717;DHT22;9487;50.892;6.906;2023-03-26T14:14:54;8.80;99.90
18717;DHT22;9487;50.892;6.906;2023-03-26T14:17:27;8.90;99.90
18717;DHT22;9487;50.892;6.906;2023-03-26T14:23:06;9.00;99.90
18717;DHT22;9487;50.892;6.906;2023-03-26T14:25:45;9.10;99.90
18717;DHT22;9487;50.892;6.906;2023-03-26T14:31:21;9.10;99.90
18717;DHT22;9487;50.892;6.906;2023-03-26T14:34:21;9.00;99.90
18717;DHT22;9487;50.892;6.906;2023-03-26T14:37:08;9.10;99.90
18717;DHT22;9487;50.892;6.906;2023-03-26T14:39:56;9.10;99.90
18717;DHT22;9487;50.892;6.906;2023-03-26T14:42:38;9.20;99.90
18717;DHT22;9487;50.892;6.906;2023-03-26T14:45:38;9.30;99.90
18717;DHT22;9487;50.892;6.906;2023-03-26T14:48:33;9.40;99.90
18717;DHT22;9487;50.892;6.906;2023-03-26T14:51:13;9.30;99.90
18717;DHT22;9487;50.892;6.906;2023-03-26T14:53:47;9.40;99.90
18717;DHT22;9487;50.892;6.906;2023-03-26T14:56:41;9.40;99.90
18717;DHT22;9487;50.892;6.906;2023-03-26T14:59:34;9.40;99.90
18717;DHT22;9487;50.892;6.906;2023-03-26T15:09:04;9.60;99.90
18717;DHT22;9487;50.892;6.906;2023-03-26T15:11:42;9.50;99.90
18717;DHT22;9487;50.892;6.906;2023-03-26T15:14:40;9.40;99.90
18717;DHT22;9487;50.892;6.906;2023-03-26T15:23:51;9.30;99.90
18717;DHT22;9487;50.892;6.906;2023-03-26T15:27:03;9.30;99.90
18717;DHT22;9487;50.892;6.906;2023-03-26T15:36:21;9.20;99.90
18717;DHT22;9487;50.892;6.906;2023-03-26T15:42:03;9.10;99.90
18717;DHT22;9487;50.892;6.906;2023-03-26T15:44:42;9.30;99.90
18717;DHT22;9487;50.892;6.906;2023-03-26T15:47:39;9.20;99.90
18717;DHT22;9487;50.892;6.906;2023-03-26T15:50:20;9.20;99.90
18717;DHT22;9487;50.892;6.906;2023-03-26T15:52:57;9.20;99.90
18717;DHT22;9487;50.892;6.906;2023-03-26T15:55:33;9.10;99.90
18717;DHT22;9487;50.892;6.906;2023-03-26T15:58:09;9.10;99.90
18717;DHT22;9487;50.892;6.906;2023-03-26T16:00:50;9.20;99.90
18717;DHT22;9487;50.892;6.906;2023-03-26T16:03:27;9.20;99.90
18717;DHT22;9487;50.892;6.906;2023-03-26T16:06:18;9.10;99.90
18717;DHT22;9487;50.892;6.906;2023-03-26T16:09:01;9.10;99.90
18717;DHT22;9487;50.892;6.906;2023-03-26T16:11:44;9.00;99.90
18717;DHT22;9487;50.892;6.906;2023-03-26T16:14:18;9.00;99.90
18717;DHT22;9487;50.892;6.906;2023-03-26T16:16:53;8.90;99.90
18717;DHT22;9487;50.892;6.906;2023-03-26T16:19:47;8.90;99.90
18717;DHT22;9487;50.892;6.906;2023-03-26T16:22:34;8.90;99.90
18717;DHT22;9487;50.892;6.906;2023-03-26T16:25:27;8.90;99.90
18717;DHT22;9487;50.892;6.906;2023-03-26T16:28:18;8.90;99.90
18717;DHT22;9487;50.892;6.906;2023-03-26T16:31:16;8.90;99.90
18717;DHT22;9487;50.892;6.906;2023-03-26T16:33:49;8.90;99.90
18717;DHT22;9487;50.892;6.906;2023-03-26T16:36:25;8.80;99.90
18717;DHT22;9487;50.892;6.906;2023-03-26T16:39:17;8.80;99.90
18717;DHT22;9487;50.892;6.906;2023-03-26T16:41:59;8.70;99.90
18717;DHT22;9487;50.892;6.906;2023-03-26T16:44:40;8.70;99.90
18717;DHT22;9487;50.892;6.906;2023-03-26T16:47:18;8.70;99.90
18717;DHT22;9487;50.892;6.906;2023-03-26T16:49:53;8.60;99.90
18717;DHT22;9487;50.892;6.906;2023-03-26T16:52:37;8.60;99.90
18717;DHT22;9487;50.892;6.906;2023-03-26T16:55:17;8.60;99.90
18717;DHT22;9487;50.892;6.906;2023-03-26T16:57:52;8.60;99.90
18717;DHT22;9487;50.892;6.906;2023-03-26T17:00:38;8.60;99.90
18717;DHT22;9487;50.892;6.906;2023-03-26T17:03:26;8.60;99.90
18717;DHT22;9487;50.892;6.906;2023-03-26T17:06:04;8.60;99.90
18717;DHT22;9487;50.892;6.906;2023-03-26T17:08:38;8.60;99.90
18717;DHT22;9487;50.892;6.906;2023-03-26T17:11:18;8.60;99.90
18717;DHT22;9487;50.892;6.906;2023-03-26T17:13:51;8.50;99.90
18717;DHT22;9487;50.892;6.906;2023-03-26T17:16:24;8.40;99.90
18717;DHT22;9487;50.892;6.906;2023-03-26T17:18:57;8.30;99.90
18717;DHT22;9487;50.892;6.906;2023-03-26T17:21:35;8.30;99.90
18717;DHT22;9487;50.892;6.906;2023-03-26T17:24:16;8.30;99.90
18717;DHT22;9487;50.892;6.906;2023-03-26T17:26:54;8.30;99.90
18717;DHT22;9487;50.892;6.906;2023-03-26T17:29:30;8.20;99.90
18717;DHT22;9487;50.892;6.906;2023-03-26T17:32:03;8.20;99.90
18717;DHT22;9487;50.892;6.906;2023-03-26T17:34:54;8.20;99.90
18717;DHT22;9487;50.892;6.906;2023-03-26T17:37:40;8.20;99.90
18717;DHT22;9487;50.892;6.906;2023-03-26T17:40:44;8.20;99.90
18717;DHT22;9487;50.892;6.906;2023-03-26T17:43:32;8.20;99.90
18717;DHT22;9487;50.892;6.906;2023-03-26T17:46:00;8.10;99.90